Terminal Aerodrome Forecast
Issued by NWS Blacksburg, VA

Home | Current Version | Previous Version | Text Only | Print | Product List | Glossary On
Versions: 1 2 3 4 5 6 7 8 9 10 11 12 13 14 15 16 17 18 19 20 21 22
000
FTUS41 KRNK 181722
TAFLYH
TAF
KLYH 181722Z 1818/1918 25008KT P6SM SCT050
     FM182000 22007KT P6SM VCTS BKN045CB
      TEMPO 1820/1823 2SM TSRA OVC025CB
     FM182300 24005KT P6SM VCTS BKN050CB
     FM190300 VRB03KT P6SM SCT090
     FM190900 00000KT 2SM BR SKC
     FM191400 28004KT P6SM SCT250=

USA.gov is the U.S. government's official web portal to all federal, state and local government web resources and services.